createdAt,value
2023-05-18T00:01:54.123Z,100.00
2023-05-18T00:04:24.297Z,100.00
2023-05-18T00:06:56.958Z,100.00
2023-05-18T00:09:25.742Z,100.00
2023-05-18T00:11:58.695Z,100.00
2023-05-18T00:14:27.470Z,100.00
2023-05-18T00:16:55.868Z,100.00
2023-05-18T00:19:24.487Z,100.00
2023-05-18T00:21:56.066Z,100.00
2023-05-18T00:24:24.369Z,100.00
2023-05-18T00:26:52.846Z,100.00
2023-05-18T00:29:23.181Z,100.00
2023-05-18T00:31:51.252Z,100.00
2023-05-18T00:34:21.355Z,100.00
2023-05-18T00:36:49.498Z,100.00
2023-05-18T00:39:17.863Z,100.00
2023-05-18T00:41:46.000Z,100.00
2023-05-18T00:44:14.038Z,100.00
2023-05-18T00:46:44.498Z,100.00
2023-05-18T00:49:13.089Z,100.00
2023-05-18T00:51:42.751Z,100.00
2023-05-18T00:54:10.857Z,100.00
2023-05-18T00:56:41.836Z,100.00
2023-05-18T00:59:11.900Z,100.00
2023-05-18T01:01:44.026Z,100.00
2023-05-18T01:04:19.160Z,100.00
2023-05-18T01:06:47.420Z,100.00
2023-05-18T01:09:16.431Z,100.00
2023-05-18T01:11:57.011Z,100.00
2023-05-18T01:14:30.723Z,100.00
2023-05-18T01:17:10.656Z,100.00
2023-05-18T01:20:10.908Z,100.00
2023-05-18T01:22:47.941Z,100.00
2023-05-18T01:25:23.813Z,100.00
2023-05-18T01:27:56.244Z,100.00
2023-05-18T01:30:24.944Z,100.00
2023-05-18T01:32:52.939Z,100.00
2023-05-18T01:35:21.776Z,100.00
2023-05-18T01:37:49.834Z,100.00
2023-05-18T01:40:18.197Z,100.00
2023-05-18T01:42:53.793Z,100.00
2023-05-18T01:45:29.188Z,100.00
2023-05-18T01:48:03.367Z,100.00
2023-05-18T01:50:37.948Z,100.00
2023-05-18T01:53:13.045Z,100.00
2023-05-18T01:55:42.174Z,100.00
2023-05-18T01:58:13.313Z,100.00
2023-05-18T02:00:42.814Z,100.00
2023-05-18T02:03:13.978Z,100.00
2023-05-18T02:05:42.067Z,100.00
2023-05-18T02:08:10.077Z,100.00
2023-05-18T02:10:38.043Z,100.00
2023-05-18T02:13:06.000Z,100.00
2023-05-18T02:15:33.953Z,100.00
2023-05-18T02:18:09.349Z,100.00
2023-05-18T02:20:38.365Z,100.00
2023-05-18T02:23:06.772Z,100.00
2023-05-18T02:25:35.210Z,100.00
2023-05-18T02:28:03.067Z,100.00
2023-05-18T02:30:33.412Z,100.00
2023-05-18T02:33:01.683Z,100.00
2023-05-18T02:35:31.756Z,100.00
2023-05-18T02:38:00.445Z,100.00
2023-05-18T02:40:28.269Z,100.00
2023-05-18T02:42:56.177Z,100.00
2023-05-18T02:45:23.972Z,100.00
2023-05-18T02:47:51.771Z,100.00
2023-05-18T02:50:20.072Z,100.00
2023-05-18T02:52:50.248Z,100.00
2023-05-18T02:55:18.902Z,100.00
2023-05-18T02:57:48.158Z,100.00
2023-05-18T03:00:16.898Z,100.00
2023-05-18T03:02:48.511Z,100.00
2023-05-18T03:05:18.756Z,100.00
2023-05-18T03:07:51.007Z,100.00
2023-05-18T03:10:20.627Z,100.00
2023-05-18T03:12:49.393Z,100.00
2023-05-18T03:15:17.202Z,100.00
2023-05-18T03:17:45.136Z,100.00
2023-05-18T03:20:15.719Z,100.00
2023-05-18T03:22:43.746Z,100.00
2023-05-18T03:25:11.472Z,100.00
2023-05-18T03:27:40.833Z,100.00
2023-05-18T03:30:09.860Z,100.00
2023-05-18T03:32:38.130Z,100.00
2023-05-18T03:35:06.625Z,100.00
2023-05-18T03:37:34.470Z,100.00
2023-05-18T03:40:11.425Z,100.00
2023-05-18T03:42:41.911Z,100.00
2023-05-18T03:45:10.894Z,100.00
2023-05-18T03:47:39.651Z,100.00
2023-05-18T03:50:08.966Z,100.00
2023-05-18T03:52:37.220Z,100.00
2023-05-18T03:55:06.213Z,100.00
2023-05-18T03:57:34.455Z,100.00
2023-05-18T04:00:08.885Z,100.00
2023-05-18T04:02:37.562Z,100.00
2023-05-18T04:05:06.429Z,100.00
2023-05-18T04:07:34.520Z,100.00
2023-05-18T04:10:02.592Z,100.00
2023-05-18T04:12:31.170Z,100.00
2023-05-18T04:14:59.086Z,100.00
2023-05-18T04:17:28.426Z,100.00
2023-05-18T04:19:56.440Z,100.00
2023-05-18T04:22:24.283Z,100.00
2023-05-18T04:24:55.384Z,100.00
2023-05-18T04:27:23.184Z,100.00
2023-05-18T04:29:51.972Z,100.00
2023-05-18T04:32:22.320Z,100.00
2023-05-18T04:34:51.662Z,100.00
2023-05-18T04:37:19.760Z,100.00
2023-05-18T04:39:48.089Z,100.00
2023-05-18T04:42:18.568Z,100.00
2023-05-18T04:44:48.983Z,100.00
2023-05-18T04:47:16.897Z,100.00
2023-05-18T04:49:44.706Z,100.00
2023-05-18T04:52:15.021Z,100.00
2023-05-18T04:54:43.348Z,100.00
2023-05-18T04:57:12.052Z,100.00
2023-05-18T04:59:41.459Z,100.00
2023-05-18T05:02:09.454Z,100.00
2023-05-18T05:04:37.392Z,100.00
2023-05-18T05:07:05.975Z,100.00
2023-05-18T05:09:35.383Z,100.00
2023-05-18T05:12:04.162Z,100.00
2023-05-18T05:14:32.576Z,100.00
2023-05-18T05:17:02.833Z,100.00
2023-05-18T05:19:33.456Z,100.00
2023-05-18T05:22:02.094Z,100.00
2023-05-18T05:24:31.275Z,100.00
2023-05-18T05:27:07.997Z,98.44
2023-05-18T05:29:36.654Z,96.27
2023-05-18T05:32:05.512Z,93.41
2023-05-18T05:34:33.565Z,87.87
2023-05-18T05:37:04.045Z,89.62
2023-05-18T05:39:33.434Z,85.96
2023-05-18T05:42:07.377Z,86.49
2023-05-18T05:44:35.525Z,84.76
2023-05-18T05:47:04.861Z,80.92
2023-05-18T05:49:33.397Z,82.58
2023-05-18T05:52:03.380Z,76.29
2023-05-18T05:54:31.866Z,76.96
2023-05-18T05:57:00.332Z,78.26
2023-05-18T05:59:29.986Z,74.11
2023-05-18T06:01:58.664Z,72.04
2023-05-18T06:04:26.787Z,67.17
2023-05-18T06:06:55.459Z,66.75
2023-05-18T06:09:23.692Z,68.19
2023-05-18T06:11:52.912Z,70.59
2023-05-18T06:14:22.486Z,65.74
2023-05-18T06:16:53.086Z,57.48
2023-05-18T06:19:21.878Z,56.15
2023-05-18T06:21:49.914Z,55.07
2023-05-18T06:24:19.188Z,52.05
2023-05-18T06:26:47.129Z,51.52
2023-05-18T06:29:17.414Z,51.14
2023-05-18T06:31:46.056Z,44.81
2023-05-18T06:34:17.894Z,46.88
2023-05-18T06:36:46.582Z,45.21
2023-05-18T06:41:56.045Z,43.37
2023-05-18T06:44:23.692Z,41.21
2023-05-18T06:46:51.336Z,42.18
2023-05-18T06:49:20.291Z,42.81
2023-05-18T06:51:48.262Z,44.20
2023-05-18T06:54:16.359Z,45.85
2023-05-18T06:56:43.994Z,41.29
2023-05-18T06:59:11.709Z,43.13
2023-05-18T07:01:39.405Z,43.65
2023-05-18T07:04:07.598Z,44.33
2023-05-18T07:06:37.239Z,38.63
2023-05-18T07:09:05.610Z,38.65
2023-05-18T07:11:33.194Z,40.28
2023-05-18T07:14:00.973Z,38.76
2023-05-18T07:16:28.754Z,39.33
2023-05-18T07:18:57.962Z,40.57
2023-05-18T07:21:26.217Z,42.57
2023-05-18T07:23:55.785Z,41.55
2023-05-18T07:26:23.684Z,42.39
2023-05-18T07:28:52.078Z,42.94
2023-05-18T07:31:21.655Z,42.45
2023-05-18T07:33:50.150Z,41.83
2023-05-18T07:36:17.984Z,42.54
2023-05-18T07:38:45.668Z,43.48
2023-05-18T07:41:15.176Z,43.48
2023-05-18T07:43:42.793Z,42.40
2023-05-18T07:46:11.125Z,41.84
2023-05-18T07:48:40.812Z,43.11
2023-05-18T07:51:10.166Z,42.10
2023-05-18T07:53:38.203Z,43.79
2023-05-18T07:56:06.990Z,42.43
2023-05-18T07:58:36.093Z,41.87
2023-05-18T08:01:03.949Z,43.69
2023-05-18T08:03:31.943Z,43.64
2023-05-18T08:06:00.367Z,43.83
2023-05-18T08:08:28.814Z,44.21
2023-05-18T08:10:56.526Z,43.89
2023-05-18T08:13:24.101Z,43.63
2023-05-18T08:16:02.980Z,44.13
2023-05-18T08:18:38.530Z,44.30
2023-05-18T08:21:08.169Z,44.79
2023-05-18T08:23:36.060Z,45.25
2023-05-18T08:26:04.565Z,45.28
2023-05-18T08:28:32.821Z,45.06
2023-05-18T08:31:01.861Z,45.41
2023-05-18T08:33:29.554Z,43.70
2023-05-18T08:35:57.216Z,44.24
2023-05-18T08:38:24.823Z,43.37
2023-05-18T08:40:59.829Z,42.82
2023-05-18T08:43:33.326Z,42.08
2023-05-18T08:46:07.714Z,42.07
2023-05-18T08:48:37.824Z,43.90
2023-05-18T08:51:07.572Z,44.75
2023-05-18T08:53:38.942Z,44.07
2023-05-18T08:56:07.261Z,43.94
2023-05-18T08:58:37.195Z,44.96
2023-05-18T09:01:06.873Z,45.38
2023-05-18T09:03:34.987Z,44.93
2023-05-18T09:06:04.551Z,43.89
2023-05-18T09:08:33.138Z,42.08
2023-05-18T09:11:03.530Z,43.69
2023-05-18T09:13:31.680Z,43.31
2023-05-18T09:15:59.381Z,42.95
2023-05-18T09:18:28.646Z,41.49
2023-05-18T09:20:56.708Z,42.58
2023-05-18T09:23:24.773Z,42.55
2023-05-18T09:25:53.715Z,43.90
2023-05-18T09:28:28.994Z,44.08
2023-05-18T09:30:56.728Z,45.37
2023-05-18T09:33:25.974Z,44.52
2023-05-18T09:35:55.117Z,43.37
2023-05-18T09:38:23.535Z,42.94
2023-05-18T09:40:51.804Z,43.50
2023-05-18T09:43:19.850Z,42.30
2023-05-18T09:45:49.582Z,42.92
2023-05-18T09:48:18.010Z,43.85
2023-05-18T09:50:46.295Z,44.87
2023-05-18T09:53:15.944Z,42.48
2023-05-18T09:55:47.641Z,44.15
2023-05-18T09:58:15.550Z,45.38
2023-05-18T10:00:44.647Z,45.32
2023-05-18T10:03:20.196Z,45.34
2023-05-18T10:05:47.956Z,44.52
2023-05-18T10:08:17.738Z,43.64
2023-05-18T10:10:47.428Z,44.84
2023-05-18T10:13:18.219Z,44.07
2023-05-18T10:15:50.954Z,47.40
2023-05-18T10:18:23.416Z,44.81
2023-05-18T10:20:52.820Z,46.91
2023-05-18T10:23:23.084Z,45.49
2023-05-18T10:25:52.292Z,45.36
2023-05-18T10:28:25.924Z,44.08
2023-05-18T10:30:55.639Z,44.63
2023-05-18T10:33:29.621Z,44.08
2023-05-18T10:35:58.456Z,41.87
2023-05-18T10:38:28.715Z,43.19
2023-05-18T10:41:00.212Z,43.37
2023-05-18T10:43:29.396Z,42.80
2023-05-18T10:45:58.766Z,41.39
2023-05-18T10:48:27.524Z,41.87
2023-05-18T10:50:56.485Z,41.67
2023-05-18T10:53:26.937Z,41.77
2023-05-18T10:55:57.003Z,42.20
2023-05-18T10:58:27.587Z,42.15
2023-05-18T11:00:58.404Z,42.66
2023-05-18T11:03:27.208Z,41.73
2023-05-18T11:06:06.633Z,41.81
2023-05-18T11:08:34.926Z,42.60
2023-05-18T11:11:07.342Z,41.88
2023-05-18T11:13:36.094Z,42.53
2023-05-18T11:16:08.445Z,41.45
2023-05-18T11:18:39.112Z,42.76
2023-05-18T11:21:22.700Z,43.35
2023-05-18T11:24:25.492Z,42.51
2023-05-18T11:26:56.369Z,42.05
2023-05-18T11:29:25.888Z,39.41
2023-05-18T11:31:54.928Z,40.57
2023-05-18T11:34:42.116Z,42.88
2023-05-18T11:37:10.445Z,41.41
2023-05-18T11:39:47.982Z,42.51
2023-05-18T11:42:24.836Z,43.95
2023-05-18T11:44:56.223Z,42.57
2023-05-18T11:47:30.790Z,42.32
2023-05-18T11:50:00.313Z,42.42
2023-05-18T11:52:28.441Z,42.20
2023-05-18T11:54:58.224Z,42.48
2023-05-18T11:57:39.929Z,40.99
2023-05-18T12:00:10.214Z,40.30
2023-05-18T12:02:38.623Z,41.72
2023-05-18T12:05:09.427Z,42.74
2023-05-18T12:07:38.843Z,42.65
2023-05-18T12:10:08.981Z,43.05
2023-05-18T12:12:39.569Z,42.18
2023-05-18T12:15:09.494Z,41.83
2023-05-18T12:17:41.043Z,40.60
2023-05-18T12:20:09.791Z,41.85
2023-05-18T12:22:37.514Z,41.88
2023-05-18T12:25:05.732Z,42.88
2023-05-18T12:27:40.990Z,42.87
2023-05-18T12:30:11.899Z,42.77
2023-05-18T12:32:39.670Z,42.53
2023-05-18T12:35:08.967Z,42.87
2023-05-18T12:37:45.199Z,41.55
2023-05-18T12:40:15.890Z,41.76
2023-05-18T12:42:54.502Z,41.51
2023-05-18T12:45:24.391Z,42.27
2023-05-18T12:47:54.487Z,41.34
2023-05-18T12:50:23.499Z,41.03
2023-05-18T12:52:51.301Z,42.32
2023-05-18T12:55:21.712Z,41.94
2023-05-18T12:58:02.144Z,41.89
2023-05-18T13:00:33.608Z,41.44
2023-05-18T13:03:07.173Z,41.05
2023-05-18T13:05:34.904Z,41.05
2023-05-18T13:08:02.822Z,41.17
2023-05-18T13:10:31.998Z,40.69
2023-05-18T13:13:03.758Z,41.95
2023-05-18T13:15:35.642Z,43.08
2023-05-18T13:18:04.626Z,43.17
2023-05-18T13:20:37.958Z,40.79
2023-05-18T13:23:07.923Z,41.06
2023-05-18T13:25:35.605Z,41.80
2023-05-18T13:28:05.368Z,41.46
2023-05-18T13:30:33.438Z,41.46
2023-05-18T13:33:01.943Z,42.92
2023-05-18T13:35:30.179Z,43.51
2023-05-18T13:37:59.072Z,43.96
2023-05-18T13:40:26.983Z,44.59
2023-05-18T13:42:54.679Z,43.32
2023-05-18T13:45:24.140Z,43.63
2023-05-18T13:47:53.489Z,44.95
2023-05-18T13:50:22.922Z,44.49
2023-05-18T13:52:50.994Z,43.73
2023-05-18T13:55:18.821Z,43.33
2023-05-18T13:57:47.248Z,44.26
2023-05-18T14:00:16.968Z,44.27
2023-05-18T14:02:46.197Z,42.73
2023-05-18T14:05:15.041Z,43.76
2023-05-18T14:07:44.213Z,42.49
2023-05-18T14:10:13.923Z,43.07
2023-05-18T14:12:42.676Z,43.23
2023-05-18T14:15:13.574Z,42.86
2023-05-18T14:17:41.421Z,42.78
2023-05-18T14:20:11.609Z,44.33
2023-05-18T14:22:39.223Z,45.71
2023-05-18T14:25:07.473Z,44.79
2023-05-18T14:27:35.081Z,45.50
2023-05-18T14:30:02.829Z,46.27
2023-05-18T14:32:30.563Z,47.33
2023-05-18T14:34:58.583Z,46.60
2023-05-18T14:37:27.627Z,46.00
2023-05-18T14:39:55.544Z,45.50
2023-05-18T14:42:23.243Z,47.17
2023-05-18T14:44:50.951Z,51.10
2023-05-18T14:47:18.871Z,51.62
2023-05-18T14:49:46.521Z,51.47
2023-05-18T14:52:14.553Z,52.26
2023-05-18T14:54:43.507Z,54.78
2023-05-18T14:57:11.208Z,54.10
2023-05-18T14:59:38.868Z,54.01
2023-05-18T15:02:07.988Z,53.41
2023-05-18T15:04:36.086Z,53.12
2023-05-18T15:07:04.618Z,53.84
2023-05-18T15:09:32.363Z,54.88
2023-05-18T15:12:01.305Z,55.15
2023-05-18T15:14:29.386Z,55.15
2023-05-18T15:16:58.549Z,56.00
2023-05-18T15:19:26.153Z,56.77
2023-05-18T15:21:53.928Z,55.94
2023-05-18T15:24:21.687Z,54.92
2023-05-18T15:26:49.506Z,55.78
2023-05-18T15:29:18.488Z,56.05
2023-05-18T15:31:46.927Z,56.59
2023-05-18T15:34:15.359Z,57.04
2023-05-18T15:36:43.289Z,56.95
2023-05-18T15:39:10.929Z,57.31
2023-05-18T15:41:38.653Z,57.76
2023-05-18T15:44:06.624Z,57.97
2023-05-18T15:46:35.931Z,58.64
2023-05-18T15:49:04.208Z,58.54
2023-05-18T15:51:32.065Z,61.86
2023-05-18T15:53:59.695Z,60.84
2023-05-18T15:56:28.138Z,60.01
2023-05-18T15:58:55.866Z,59.92
2023-05-18T16:01:23.690Z,60.40
2023-05-18T16:03:52.796Z,58.12
2023-05-18T16:06:20.469Z,59.01
2023-05-18T16:08:48.086Z,60.23
2023-05-18T16:11:16.039Z,57.85
2023-05-18T16:13:43.803Z,57.56
2023-05-18T16:16:14.137Z,57.15
2023-05-18T16:18:42.464Z,57.36
2023-05-18T16:21:11.445Z,56.52
2023-05-18T16:23:39.330Z,56.86
2023-05-18T16:26:07.334Z,57.37
2023-05-18T16:28:35.297Z,57.49
2023-05-18T16:31:04.665Z,56.96
2023-05-18T16:33:32.578Z,57.34
2023-05-18T16:36:00.342Z,58.76
2023-05-18T16:38:29.380Z,58.47
2023-05-18T16:40:57.129Z,57.51
2023-05-18T16:43:24.828Z,58.31
2023-05-18T16:45:53.257Z,58.91
2023-05-18T16:48:20.911Z,59.92
2023-05-18T16:50:48.777Z,59.55
2023-05-18T16:53:16.490Z,59.19
2023-05-18T16:55:45.615Z,58.59
2023-05-18T16:58:13.329Z,58.19
2023-05-18T17:00:41.523Z,57.23
2023-05-18T17:03:09.236Z,60.38
2023-05-18T17:05:37.813Z,59.13
2023-05-18T17:08:05.880Z,59.70
2023-05-18T17:10:35.427Z,62.00
2023-05-18T17:13:04.886Z,64.22
2023-05-18T17:15:33.139Z,62.67
2023-05-18T17:18:01.535Z,61.08
2023-05-18T17:20:29.320Z,62.13
2023-05-18T17:22:57.166Z,61.02
2023-05-18T17:25:25.883Z,61.90
2023-05-18T17:27:53.593Z,66.23
2023-05-18T17:30:23.343Z,64.58
2023-05-18T17:32:51.431Z,67.72
2023-05-18T17:35:19.360Z,64.98
2023-05-18T17:37:48.762Z,64.26
2023-05-18T17:40:16.525Z,65.62
2023-05-18T17:42:44.200Z,69.37
2023-05-18T17:45:12.099Z,73.43
2023-05-18T17:47:42.239Z,70.52
2023-05-18T17:50:10.264Z,66.25
2023-05-18T17:52:37.964Z,67.35
2023-05-18T17:55:06.279Z,68.70
2023-05-18T17:57:34.244Z,68.34
2023-05-18T18:00:02.074Z,70.41
2023-05-18T18:02:29.753Z,68.39
2023-05-18T18:04:58.814Z,69.09
2023-05-18T18:07:26.613Z,67.03
2023-05-18T18:09:54.618Z,67.09
2023-05-18T18:12:22.286Z,68.37
2023-05-18T18:14:49.906Z,68.72
2023-05-18T18:17:17.628Z,68.97
2023-05-18T18:19:45.359Z,69.54
2023-05-18T18:22:14.327Z,69.77
2023-05-18T18:24:41.910Z,71.66
2023-05-18T18:27:09.926Z,72.30
2023-05-18T18:29:37.649Z,72.32
2023-05-18T18:32:06.125Z,74.70
2023-05-18T18:34:34.090Z,75.34
2023-05-18T18:37:02.236Z,75.58
2023-05-18T18:39:31.190Z,74.36
2023-05-18T18:41:59.096Z,74.31
2023-05-18T18:44:26.787Z,74.37
2023-05-18T18:46:54.492Z,74.56
2023-05-18T18:49:22.214Z,74.17
2023-05-18T18:51:51.675Z,75.33
2023-05-18T18:54:19.449Z,77.64
2023-05-18T18:56:48.469Z,78.26
2023-05-18T18:59:16.089Z,78.79
2023-05-18T19:01:44.196Z,79.44
2023-05-18T19:04:12.980Z,80.67
2023-05-18T19:06:42.556Z,80.69
2023-05-18T19:09:10.263Z,80.85
2023-05-18T19:11:37.897Z,81.46
2023-05-18T19:14:06.982Z,82.27
2023-05-18T19:16:35.315Z,82.99
2023-05-18T19:19:08.530Z,83.83
2023-05-18T19:21:36.659Z,86.12
2023-05-18T19:24:04.365Z,87.86
2023-05-18T19:26:32.531Z,88.36
2023-05-18T19:29:00.412Z,89.54
2023-05-18T19:31:31.683Z,92.26
2023-05-18T19:34:00.602Z,93.63
2023-05-18T19:36:28.542Z,93.47
2023-05-18T19:38:56.418Z,96.71
2023-05-18T19:41:24.894Z,98.97
2023-05-18T19:43:52.856Z,99.94
2023-05-18T19:46:20.597Z,100.00
2023-05-18T19:48:49.593Z,100.00
2023-05-18T19:51:18.502Z,100.00
2023-05-18T19:53:46.252Z,100.00
2023-05-18T19:56:14.034Z,100.00
2023-05-18T19:58:41.856Z,100.00
2023-05-18T20:01:10.388Z,100.00
2023-05-18T20:03:40.856Z,100.00
2023-05-18T20:06:12.593Z,100.00
2023-05-18T20:08:40.555Z,100.00
2023-05-18T20:11:08.258Z,100.00
2023-05-18T20:13:35.869Z,100.00
2023-05-18T20:16:04.090Z,100.00
2023-05-18T20:18:34.896Z,100.00
2023-05-18T20:21:03.274Z,100.00
2023-05-18T20:23:32.272Z,100.00
2023-05-18T20:26:01.062Z,100.00
2023-05-18T20:28:31.399Z,100.00
2023-05-18T20:30:59.242Z,100.00
2023-05-18T20:33:27.004Z,100.00
2023-05-18T20:35:54.572Z,100.00
2023-05-18T20:38:25.630Z,100.00
2023-05-18T20:40:57.626Z,100.00
2023-05-18T20:43:25.268Z,100.00
2023-05-18T20:45:52.992Z,100.00
2023-05-18T20:48:26.573Z,100.00
2023-05-18T20:50:54.515Z,100.00
2023-05-18T20:53:22.174Z,100.00
2023-05-18T20:55:50.426Z,100.00
2023-05-18T20:58:19.440Z,100.00
2023-05-18T21:00:47.965Z,100.00
2023-05-18T21:03:18.266Z,100.00
2023-05-18T21:05:49.621Z,100.00
2023-05-18T21:08:17.438Z,100.00
2023-05-18T21:10:45.077Z,100.00
2023-05-18T21:13:12.720Z,100.00
2023-05-18T21:15:41.880Z,100.00
2023-05-18T21:18:09.842Z,100.00
2023-05-18T21:20:37.572Z,100.00
2023-05-18T21:23:05.357Z,100.00
2023-05-18T21:25:32.974Z,100.00
2023-05-18T21:28:00.585Z,100.00
2023-05-18T21:30:28.285Z,100.00
2023-05-18T21:32:57.329Z,100.00
2023-05-18T21:35:25.187Z,100.00
2023-05-18T21:37:53.190Z,100.00
2023-05-18T21:40:20.865Z,100.00
2023-05-18T21:42:48.492Z,100.00
2023-05-18T21:45:17.344Z,100.00
2023-05-18T21:47:45.135Z,100.00
2023-05-18T21:50:14.146Z,100.00
2023-05-18T21:52:41.759Z,100.00
2023-05-18T21:55:10.480Z,100.00
2023-05-18T21:57:38.162Z,100.00
2023-05-18T22:00:07.031Z,100.00
2023-05-18T22:02:34.704Z,100.00
2023-05-18T22:05:02.409Z,100.00
2023-05-18T22:07:31.405Z,100.00
2023-05-18T22:09:58.998Z,100.00
2023-05-18T22:12:27.033Z,100.00
2023-05-18T22:14:54.652Z,100.00
2023-05-18T22:17:22.390Z,100.00
2023-05-18T22:19:50.608Z,100.00
2023-05-18T22:22:29.215Z,100.00
2023-05-18T22:24:59.508Z,100.00
2023-05-18T22:27:27.307Z,100.00
2023-05-18T22:29:55.013Z,100.00
2023-05-18T22:32:22.817Z,100.00
2023-05-18T22:34:50.626Z,100.00
2023-05-18T22:37:18.339Z,100.00
2023-05-18T22:39:45.974Z,100.00
2023-05-18T22:42:15.005Z,100.00
2023-05-18T22:44:42.703Z,100.00
2023-05-18T22:47:11.340Z,100.00
2023-05-18T22:49:41.128Z,100.00
2023-05-18T22:52:10.184Z,100.00
2023-05-18T22:54:37.775Z,100.00
2023-05-18T22:57:05.718Z,100.00
2023-05-18T22:59:35.543Z,100.00
2023-05-18T23:02:03.494Z,100.00
2023-05-18T23:04:31.264Z,100.00
2023-05-18T23:06:59.163Z,100.00
2023-05-18T23:09:27.915Z,100.00
2023-05-18T23:11:56.267Z,100.00
2023-05-18T23:14:24.180Z,100.00
2023-05-18T23:16:53.546Z,100.00
2023-05-18T23:19:21.425Z,100.00
2023-05-18T23:21:49.184Z,100.00
2023-05-18T23:24:17.245Z,100.00
2023-05-18T23:26:45.579Z,100.00
2023-05-18T23:29:13.247Z,100.00
2023-05-18T23:31:41.288Z,100.00
2023-05-18T23:34:11.058Z,100.00
2023-05-18T23:36:42.518Z,100.00
2023-05-18T23:39:10.399Z,100.00
2023-05-18T23:41:39.265Z,100.00
2023-05-18T23:44:07.508Z,100.00
2023-05-18T23:46:35.993Z,100.00
2023-05-18T23:49:04.487Z,100.00
2023-05-18T23:51:36.264Z,100.00
2023-05-18T23:54:07.182Z,100.00
2023-05-18T23:56:35.484Z,100.00
2023-05-18T23:59:03.816Z,100.00
